Time;durP1;ratioP1;P1;durP2;ratioP2;P2;SDS_P1;SDS_P2;PMS_P1;PMS_P2;Temp;Humidity;BMP_temperature;BMP_pressure;BME280_temperature;BME280_humidity;BME280_pressure;Samples;Min_cycle;Max_cycle;Signal;HPM_P1;HPM_P2
2022/07/08 00:00:17;;;;;;;22.70;2.75;;;;;;;48.48;6.05;100779.84;5052709;28;20110;-59
2022/07/08 00:02:44;;;;;;;19.55;2.38;;;;;;;48.23;6.08;100778.88;5052562;28;20033;-59
2022/07/08 00:05:10;;;;;;;24.33;2.55;;;;;;;46.27;6.94;100781.94;5052350;28;20048;-60
2022/07/08 00:07:37;;;;;;;19.88;2.08;;;;;;;46.02;7.82;100772.09;5052321;28;20502;-58
2022/07/08 00:10:05;;;;;;;15.93;2.45;;;;;;;45.87;7.18;100771.41;5052227;28;20040;-59
2022/07/08 00:12:32;;;;;;;17.73;2.50;;;;;;;47.09;7.24;100773.50;5052421;28;20086;-59
2022/07/08 00:14:59;;;;;;;23.13;2.63;;;;;;;45.39;7.92;100765.47;5049271;28;20021;-59
2022/07/08 00:17:27;;;;;;;23.20;3.08;;;;;;;45.60;7.88;100763.31;5051067;28;20106;-59
2022/07/08 00:19:54;;;;;;;23.35;2.50;;;;;;;45.86;7.76;100754.69;5051683;28;20113;-58
2022/07/08 00:22:20;;;;;;;18.13;3.15;;;;;;;44.30;8.04;100751.53;5050523;28;20033;-59
2022/07/08 00:24:47;;;;;;;16.25;2.47;;;;;;;45.18;7.50;100756.09;5051833;28;20036;-59
2022/07/08 00:27:14;;;;;;;22.30;2.78;;;;;;;45.08;7.96;100755.47;5051570;28;20036;-60
2022/07/08 00:29:40;;;;;;;28.40;2.53;;;;;;;45.28;7.98;100751.03;5051987;28;20044;-60
2022/07/08 00:32:08;;;;;;;21.33;2.33;;;;;;;46.60;7.14;100746.84;5051769;28;20021;-59
2022/07/08 00:34:34;;;;;;;21.83;2.60;;;;;;;46.19;7.11;100746.34;5052520;28;20037;-59
2022/07/08 00:37:02;;;;;;;25.33;2.72;;;;;;;46.07;7.37;100739.72;5051858;28;20407;-59
2022/07/08 00:39:28;;;;;;;26.48;2.58;;;;;;;45.17;8.15;100743.81;5051098;28;20037;-59
2022/07/08 00:41:55;;;;;;;25.40;2.50;;;;;;;44.09;8.52;100741.31;5043376;28;20079;-60
2022/07/08 00:44:22;;;;;;;15.68;2.10;;;;;;;42.65;9.52;100735.97;5042452;28;20044;-59
2022/07/08 00:46:48;;;;;;;16.50;2.47;;;;;;;42.68;9.38;100739.94;5041850;28;20099;-59
2022/07/08 00:49:15;;;;;;;18.35;1.83;;;;;;;43.08;9.50;100730.88;5040479;28;20121;-60
2022/07/08 00:51:43;;;;;;;36.25;2.75;;;;;;;43.04;9.66;100736.03;5040637;28;20064;-59
2022/07/08 00:54:14;;;;;;;28.40;2.42;;;;;;;43.00;9.48;100736.22;5040590;28;20212;-59
2022/07/08 00:56:41;;;;;;;25.95;2.10;;;;;;;42.79;9.75;100740.19;5040155;28;20036;-58
2022/07/08 00:59:09;;;;;;;14.50;1.77;;;;;;;42.61;9.71;100741.09;5039892;28;20109;-59
2022/07/08 01:01:37;;;;;;;20.23;2.05;;;;;;;42.42;9.63;100743.25;5039112;28;20330;-60
2022/07/08 01:04:04;;;;;;;18.98;1.65;;;;;;;42.76;9.15;100736.22;5039453;28;20029;-60
2022/07/08 01:06:31;;;;;;;18.25;1.73;;;;;;;42.82;9.50;100742.06;5040508;28;20047;-59
2022/07/08 01:08:57;;;;;;;15.88;1.80;;;;;;;42.31;9.93;100739.34;5037827;28;20025;-59
2022/07/08 01:11:26;;;;;;;16.85;1.63;;;;;;;42.17;10.12;100741.63;5039924;28;20480;-58
2022/07/08 01:13:54;;;;;;;16.98;1.73;;;;;;;42.88;9.57;100730.72;5039532;28;20040;-59
2022/07/08 01:16:21;;;;;;;13.18;1.85;;;;;;;42.69;9.43;100748.00;5042288;28;20531;-59
2022/07/08 01:18:47;;;;;;;26.20;1.92;;;;;;;41.83;9.94;100739.22;5038028;28;20105;-59
2022/07/08 01:21:15;;;;;;;19.45;1.58;;;;;;;41.31;10.26;100744.88;5039165;28;20029;-59
2022/07/08 01:23:41;;;;;;;25.15;2.00;;;;;;;41.11;10.22;100740.88;5039593;28;20120;-59
2022/07/08 01:26:12;;;;;;;16.60;1.83;;;;;;;40.94;10.38;100752.63;5040732;28;20052;-59
2022/07/08 01:28:42;;;;;;;19.40;1.70;;;;;;;40.81;10.43;100751.94;5038130;28;20110;-58
2022/07/08 01:31:09;;;;;;;19.65;1.95;;;;;;;41.00;10.47;100753.56;5041605;28;20502;-59
2022/07/08 01:33:36;;;;;;;30.35;2.50;;;;;;;41.18;10.44;100740.56;5041133;28;20033;-61
2022/07/08 01:36:03;;;;;;;24.90;1.90;;;;;;;40.93;10.14;100742.47;5040237;28;20041;-59
2022/07/08 01:38:30;;;;;;;22.88;1.98;;;;;;;40.73;10.51;100753.50;5038557;28;20040;-60
2022/07/08 01:40:56;;;;;;;16.17;2.08;;;;;;;40.73;10.35;100747.81;5035515;28;20060;-60
2022/07/08 01:43:23;;;;;;;11.70;1.42;;;;;;;40.76;10.21;100758.28;5052876;28;20029;-59
2022/07/08 01:45:50;;;;;;;14.30;1.65;;;;;;;40.60;10.41;100759.38;5039731;28;20419;-59
2022/07/08 01:48:17;;;;;;;11.90;1.27;;;;;;;40.13;10.82;100757.59;5042531;28;20033;-58
2022/07/08 01:50:44;;;;;;;10.27;1.73;;;;;;;39.88;10.75;100754.94;5035819;28;20079;-60
2022/07/08 01:53:14;;;;;;;17.63;2.03;;;;;;;39.65;10.78;100750.53;5038195;28;20033;-61
2022/07/08 01:55:41;;;;;;;12.95;1.75;;;;;;;39.73;10.33;100756.75;5040743;28;20034;-61
2022/07/08 01:58:10;;;;;;;15.25;1.27;;;;;;;39.41;10.28;100763.63;5052443;28;20463;-62
2022/07/08 02:00:37;;;;;;;13.93;1.77;;;;;;;39.17;10.60;100764.09;5042187;28;20021;-60
2022/07/08 02:03:05;;;;;;;11.77;1.58;;;;;;;39.06;10.60;100763.63;5047793;28;20067;-60
2022/07/08 02:05:34;;;;;;;12.93;1.70;;;;;;;38.95;10.82;100768.91;5046857;28;20029;-60
2022/07/08 02:08:03;;;;;;;9.75;1.52;;;;;;;38.88;10.63;100774.84;5042998;28;20041;-62
2022/07/08 02:13:19;;;;;;;20.33;2.03;;;;;;;38.85;10.97;100767.25;5030448;28;20067;-62
2022/07/08 02:15:47;;;;;;;21.05;1.67;;;;;;;38.53;10.92;100771.94;5035606;28;20025;-60
2022/07/08 02:18:13;;;;;;;19.88;2.17;;;;;;;38.42;10.81;100776.38;5046729;28;20025;-61
2022/07/08 02:20:40;;;;;;;13.70;1.23;;;;;;;38.20;11.21;100776.25;5049846;28;20021;-61
2022/07/08 02:23:10;;;;;;;5.60;0.98;;;;;;;38.07;11.38;100788.41;5047655;28;20480;-60
2022/07/08 02:25:37;;;;;;;8.52;1.10;;;;;;;37.89;11.53;100779.63;5052729;28;20059;-60
2022/07/08 02:28:04;;;;;;;14.68;1.17;;;;;;;37.69;11.65;100776.94;5052885;28;20048;-60
2022/07/08 02:30:33;;;;;;;8.43;1.35;;;;;;;37.60;12.04;100784.53;5052873;28;20032;-60
2022/07/08 02:33:00;;;;;;;10.18;1.67;;;;;;;37.44;12.14;100786.19;5052777;28;20029;-61
2022/07/08 02:35:26;;;;;;;15.82;1.40;;;;;;;37.33;12.37;100776.38;5052756;28;20053;-61
2022/07/08 02:37:53;;;;;;;12.15;1.77;;;;;;;37.18;12.52;100784.47;5052947;28;20510;-60
2022/07/08 02:40:20;;;;;;;17.25;1.60;;;;;;;37.02;12.76;100779.63;5052904;28;20131;-61
2022/07/08 02:42:47;;;;;;;15.80;1.52;;;;;;;36.89;12.84;100784.44;5052701;28;20063;-61
2022/07/08 02:45:13;;;;;;;8.45;1.45;;;;;;;36.75;13.25;100791.22;5052770;28;20467;-60
2022/07/08 02:47:40;;;;;;;15.35;2.67;;;;;;;36.64;13.74;100787.09;5052664;28;20048;-60
2022/07/08 02:50:07;;;;;;;11.43;2.95;;;;;;;36.56;13.21;100783.59;5052807;28;20032;-60
2022/07/08 02:52:34;;;;;;;11.77;1.80;;;;;;;36.54;13.41;100788.91;5052274;28;20020;-60
2022/07/08 02:55:01;;;;;;;13.80;2.17;;;;;;;36.38;13.65;100786.09;5049959;28;20037;-60
2022/07/08 02:57:27;;;;;;;14.18;1.92;;;;;;;36.36;13.73;100795.00;5052490;28;20029;-60
2022/07/08 02:59:56;;;;;;;18.42;1.95;;;;;;;36.17;14.11;100805.13;5052466;28;20029;-60
2022/07/08 03:02:23;;;;;;;12.48;1.73;;;;;;;36.07;14.35;100794.03;5049860;28;20024;-59
2022/07/08 03:04:51;;;;;;;8.65;1.60;;;;;;;36.05;14.41;100802.97;5052272;28;20494;-60
2022/07/08 03:07:21;;;;;;;17.95;2.00;;;;;;;36.08;14.59;100806.94;5052054;28;20021;-59
2022/07/08 03:09:47;;;;;;;11.77;1.80;;;;;;;35.92;14.51;100807.72;5051169;28;20114;-60
2022/07/08 03:12:14;;;;;;;13.85;2.03;;;;;;;35.75;15.25;100806.84;5052128;28;20020;-59
2022/07/08 03:14:41;;;;;;;13.25;1.95;;;;;;;35.60;15.09;100811.19;5052206;28;20051;-59
2022/07/08 03:17:08;;;;;;;22.50;2.47;;;;;;;35.59;15.55;100812.41;5052018;28;20040;-59
2022/07/08 03:19:37;;;;;;;16.85;1.80;;;;;;;35.37;15.70;100818.50;5052233;28;20175;-59
2022/07/08 03:22:04;;;;;;;19.77;2.13;;;;;;;35.35;15.76;100823.75;5049581;28;20024;-59
2022/07/08 03:24:31;;;;;;;20.10;2.33;;;;;;;35.52;15.68;100813.34;5051301;28;20162;-59
2022/07/08 03:26:59;;;;;;;16.48;2.15;;;;;;;35.43;15.85;100830.09;5050802;28;20029;-60
2022/07/08 03:29:28;;;;;;;16.50;2.35;;;;;;;35.28;16.16;100832.34;5052057;28;20037;-59
2022/07/08 03:31:55;;;;;;;15.07;2.22;;;;;;;35.10;16.03;100840.34;5049792;28;20112;-60
2022/07/08 03:34:22;;;;;;;17.45;2.22;;;;;;;35.03;16.18;100841.28;5052178;28;20124;-60
2022/07/08 03:36:48;;;;;;;16.33;2.00;;;;;;;34.99;16.50;100843.34;5051652;28;20044;-59
2022/07/08 03:39:15;;;;;;;19.25;2.15;;;;;;;34.90;16.26;100843.13;5052042;28;20074;-60
2022/07/08 03:41:42;;;;;;;24.10;2.28;;;;;;;34.74;16.77;100849.38;5049906;28;20028;-60
2022/07/08 03:44:09;;;;;;;17.17;2.00;;;;;;;34.77;16.61;100856.19;5051271;28;20033;-60
2022/07/08 03:46:36;;;;;;;19.27;2.15;;;;;;;34.70;16.64;100870.44;5051706;28;20025;-60
2022/07/08 03:49:02;;;;;;;14.63;1.90;;;;;;;34.88;16.35;100868.16;5048029;28;20041;-61
2022/07/08 03:51:29;;;;;;;18.60;2.08;;;;;;;34.84;16.59;100862.56;5051384;28;20017;-60
2022/07/08 03:53:56;;;;;;;15.43;1.83;;;;;;;34.70;16.46;100873.28;5050339;28;20158;-62
2022/07/08 03:56:23;;;;;;;11.40;2.03;;;;;;;34.55;16.60;100875.50;5048338;28;20083;-62
2022/07/08 03:58:50;;;;;;;18.75;1.92;;;;;;;34.45;17.08;100882.88;5051235;28;20071;-61
2022/07/08 04:01:17;;;;;;;14.75;2.05;;;;;;;34.38;16.87;100891.47;5051206;28;20021;-62
2022/07/08 04:03:44;;;;;;;14.30;1.40;;;;;;;34.31;16.85;100888.72;5051567;28;20032;-60
2022/07/08 04:06:11;;;;;;;15.02;1.60;;;;;;;34.32;17.33;100893.13;5051607;28;20075;-60
2022/07/08 04:08:38;;;;;;;15.13;1.50;;;;;;;34.11;17.76;100893.38;5052060;28;20040;-59
2022/07/08 04:11:05;;;;;;;16.15;1.50;;;;;;;34.08;17.74;100892.22;5051201;28;20040;-61
2022/07/08 04:13:33;;;;;;;20.60;1.73;;;;;;;33.88;17.97;100903.34;5051477;28;20025;-61
2022/07/08 04:16:01;;;;;;;11.48;1.33;;;;;;;33.88;18.36;100903.34;5051507;28;20044;-61
2022/07/08 04:18:28;;;;;;;13.82;1.35;;;;;;;33.73;18.44;100901.88;5055980;28;20037;-61
2022/07/08 04:20:55;;;;;;;10.35;1.45;;;;;;;33.90;18.23;100906.53;5055235;28;20025;-60
2022/07/08 04:23:23;;;;;;;12.23;1.60;;;;;;;33.84;18.46;100907.41;5045029;28;20103;-60
2022/07/08 04:25:51;;;;;;;13.75;1.75;;;;;;;33.64;18.54;100912.84;5045504;28;20483;-61
2022/07/08 04:28:18;;;;;;;7.53;1.35;;;;;;;33.72;18.32;100922.81;5040585;28;20553;-60
2022/07/08 04:30:44;;;;;;;16.13;2.08;;;;;;;33.52;18.38;100924.63;5033754;28;20463;-62
2022/07/08 04:33:11;;;;;;;9.73;1.42;;;;;;;33.43;18.50;100922.31;5039948;28;20037;-59
2022/07/08 04:35:39;;;;;;;8.75;1.65;;;;;;;33.60;18.77;100926.97;5055324;28;20102;-60
2022/07/08 04:38:06;;;;;;;6.70;1.38;;;;;;;33.34;18.64;100930.44;5051161;28;20064;-59
2022/07/08 04:40:33;;;;;;;21.58;1.60;;;;;;;33.33;19.14;100920.38;5055180;28;20036;-60
2022/07/08 04:42:59;;;;;;;14.07;1.55;;;;;;;33.32;19.39;100922.41;5051955;28;20029;-62
2022/07/08 04:45:26;;;;;;;4.50;1.15;;;;;;;33.29;19.46;100937.28;5041978;28;20033;-61
2022/07/08 04:47:53;;;;;;;7.30;1.40;;;;;;;33.05;19.48;100941.91;5043157;28;20041;-60
2022/07/08 04:50:20;;;;;;;8.10;1.17;;;;;;;33.07;19.78;100941.50;5048244;28;20032;-61
2022/07/08 04:52:48;;;;;;;9.82;1.13;;;;;;;32.92;19.99;100935.16;5053255;28;20053;-60
2022/07/08 04:55:28;;;;;;;10.40;1.30;;;;;;;33.12;19.83;100941.06;5055353;28;20025;-59
2022/07/08 04:58:00;;;;;;;8.18;1.42;;;;;;;33.22;19.51;100953.47;5049044;28;20044;-60
2022/07/08 05:00:29;;;;;;;7.53;1.40;;;;;;;33.05;20.01;100946.75;5054815;28;20120;-59
2022/07/08 05:02:56;;;;;;;14.85;1.20;;;;;;;32.95;19.91;100956.06;5047778;28;20025;-60
2022/07/08 05:05:23;;;;;;;8.40;1.23;;;;;;;33.04;20.06;100962.03;5055434;28;20453;-59
2022/07/08 05:07:51;;;;;;;7.88;1.55;;;;;;;32.90;20.33;100962.13;5053847;28;20033;-60
2022/07/08 05:10:25;;;;;;;11.48;1.73;;;;;;;32.90;20.29;100974.19;5052354;28;20029;-60
2022/07/08 05:12:51;;;;;;;7.70;1.63;;;;;;;32.64;20.33;100961.44;5054341;28;20025;-60
2022/07/08 05:15:19;;;;;;;9.13;1.70;;;;;;;32.33;21.15;100962.41;5051566;28;20030;-60
2022/07/08 05:17:47;;;;;;;7.45;1.70;;;;;;;32.47;20.79;100973.56;5054052;28;20085;-60
2022/07/08 05:20:14;;;;;;;7.35;1.80;;;;;;;32.56;20.63;100971.13;5052757;28;20024;-61
2022/07/08 05:22:42;;;;;;;8.68;2.30;;;;;;;32.39;21.17;100978.44;5049589;28;20033;-60
2022/07/08 05:25:09;;;;;;;30.00;2.55;;;;;;;32.02;21.23;100973.31;5052760;28;20043;-60
2022/07/08 05:27:36;;;;;;;15.02;2.30;;;;;;;31.86;21.57;100972.94;5051287;28;20033;-60
2022/07/08 05:30:05;;;;;;;12.23;1.80;;;;;;;32.01;21.22;100974.50;5050733;28;20399;-60
2022/07/08 05:32:32;;;;;;;18.10;2.45;;;;;;;31.87;22.08;100977.34;5052488;28;20029;-59
2022/07/08 05:35:00;;;;;;;11.50;1.77;;;;;;;31.69;22.75;100974.53;5050198;28;20048;-60
2022/07/08 05:37:27;;;;;;;18.70;2.25;;;;;;;31.55;24.94;100972.53;5050534;28;20079;-62
2022/07/08 05:39:54;;;;;;;8.65;1.60;;;;;;;31.41;24.54;100975.34;5052292;28;20023;-61
2022/07/08 05:42:21;;;;;;;1999.90;164.00;;;;;;;31.26;24.04;100982.97;5053390;28;20029;-61
2022/07/08 05:44:48;;;;;;;36.92;3.05;;;;;;;31.11;24.73;100978.50;5053309;28;20047;-60
2022/07/08 05:47:14;;;;;;;11.02;1.83;;;;;;;30.95;26.75;100978.88;5053474;28;20036;-60
2022/07/08 05:49:44;;;;;;;8.73;1.88;;;;;;;31.02;24.96;100983.69;5053756;28;20039;-60
2022/07/08 05:52:11;;;;;;;8.32;1.50;;;;;;;30.82;26.93;100974.03;5049632;28;20497;-60
2022/07/08 05:54:38;;;;;;;4.53;1.55;;;;;;;30.74;25.97;100981.63;5050676;28;20099;-60
2022/07/08 05:57:05;;;;;;;11.35;1.80;;;;;;;30.63;26.54;100984.38;5052897;28;20111;-59
2022/07/08 05:59:32;;;;;;;6.20;1.45;;;;;;;30.50;27.21;100982.31;5053290;28;20087;-59
2022/07/08 06:02:00;;;;;;;9.30;1.73;;;;;;;30.46;27.95;100981.47;5053284;28;20517;-60
2022/07/08 06:04:27;;;;;;;7.68;1.33;;;;;;;30.37;27.27;100977.06;5053252;28;20028;-59
2022/07/08 06:06:53;;;;;;;5.47;1.23;;;;;;;30.37;27.17;100965.84;5052682;28;20082;-60
2022/07/08 06:09:20;;;;;;;10.32;1.50;;;;;;;30.50;26.70;100962.66;5052109;28;20020;-60
2022/07/08 06:11:48;;;;;;;11.27;1.50;;;;;;;30.41;27.26;100956.63;5052862;28;20413;-59
2022/07/08 06:14:16;;;;;;;10.25;1.55;;;;;;;30.37;26.55;100968.66;5033458;28;20052;-60
2022/07/08 06:16:43;;;;;;;10.40;1.90;;;;;;;30.40;28.02;100960.63;5052684;28;20083;-59
2022/07/08 06:19:10;;;;;;;16.05;1.80;;;;;;;30.28;27.41;100971.00;5052738;28;20025;-59
2022/07/08 06:21:37;;;;;;;12.68;1.92;;;;;;;30.21;27.75;100973.78;5052265;28;20040;-60
2022/07/08 06:24:04;;;;;;;11.48;1.80;;;;;;;30.17;26.78;100975.75;5051659;28;20024;-61
2022/07/08 06:26:31;;;;;;;13.20;1.70;;;;;;;30.15;28.18;100972.50;5052583;28;20040;-60
2022/07/08 06:28:58;;;;;;;9.50;1.70;;;;;;;30.08;29.27;100962.06;5051834;28;20025;-61
2022/07/08 06:31:24;;;;;;;10.57;1.48;;;;;;;29.91;28.58;100959.13;5051584;28;20090;-61
2022/07/08 06:33:58;;;;;;;15.75;1.90;;;;;;;29.95;27.46;100976.78;5052183;28;20028;-61
2022/07/08 06:36:26;;;;;;;5.30;1.23;;;;;;;29.89;27.28;100972.75;5052348;28;20449;-60
2022/07/08 06:38:53;;;;;;;7.15;1.38;;;;;;;29.78;27.45;100970.66;5049024;28;20040;-60
2022/07/08 06:41:20;;;;;;;9.60;1.92;;;;;;;29.68;27.33;100979.81;5052389;28;20048;-59
2022/07/08 06:43:47;;;;;;;7.30;1.48;;;;;;;30.02;26.57;100985.25;5049670;28;20474;-57
2022/07/08 06:46:14;;;;;;;9.98;1.80;;;;;;;29.96;26.79;100986.78;5049019;28;20657;-59
2022/07/08 06:48:41;;;;;;;9.52;1.67;;;;;;;29.76;28.09;100975.84;5051837;28;20033;-58
2022/07/08 06:51:10;;;;;;;13.93;1.67;;;;;;;29.62;29.06;100986.94;5051132;28;20021;-62
2022/07/08 06:56:24;;;;;;;10.65;2.15;;;;;;;29.57;28.93;100981.72;5052015;28;20033;-59
2022/07/08 06:58:51;;;;;;;11.70;2.00;;;;;;;29.60;27.82;100978.13;5051535;28;20392;-59
2022/07/08 07:01:18;;;;;;;10.38;1.80;;;;;;;29.66;27.96;100984.19;5051609;28;20036;-60
2022/07/08 07:03:44;;;;;;;10.05;1.77;;;;;;;29.49;28.91;100974.47;5050941;28;20054;-60
2022/07/08 07:06:11;;;;;;;8.80;1.70;;;;;;;29.40;29.13;100979.53;5036267;28;20025;-57
2022/07/08 07:08:38;;;;;;;13.43;2.10;;;;;;;29.31;29.95;100981.88;5042687;28;20698;-59
2022/07/08 07:11:04;;;;;;;11.05;1.92;;;;;;;29.17;30.50;100971.34;5043689;28;20106;-59
2022/07/08 07:13:33;;;;;;;10.55;2.10;;;;;;;29.10;30.13;100974.88;5033879;28;20021;-61
2022/07/08 07:15:59;;;;;;;17.67;2.20;;;;;;;29.16;30.21;100970.53;5047795;28;20029;-58
2022/07/08 07:18:26;;;;;;;8.75;2.13;;;;;;;29.16;30.41;100973.34;5037838;28;20035;-59
2022/07/08 07:20:53;;;;;;;9.43;2.10;;;;;;;29.19;31.21;100975.34;5041277;28;20034;-60
2022/07/08 07:23:19;;;;;;;11.65;1.90;;;;;;;29.16;30.78;100978.13;5043120;28;20107;-59
2022/07/08 07:25:49;;;;;;;11.77;1.83;;;;;;;29.13;30.56;100978.91;5061175;28;20037;-61
2022/07/08 07:28:16;;;;;;;11.95;1.92;;;;;;;29.13;30.81;100985.31;5058233;28;20047;-59
2022/07/08 07:30:43;;;;;;;28.65;2.83;;;;;;;29.06;31.50;100979.63;5063636;28;20055;-59
2022/07/08 07:33:09;;;;;;;16.70;1.95;;;;;;;29.02;31.10;100978.78;5045812;28;20040;-60
2022/07/08 07:35:36;;;;;;;12.35;1.88;;;;;;;28.95;31.54;100975.91;5052287;28;20045;-59
2022/07/08 07:38:03;;;;;;;9.35;1.83;;;;;;;28.95;31.90;100978.72;5036123;28;20048;-60
2022/07/08 07:40:29;;;;;;;9.77;1.48;;;;;;;28.91;31.73;100982.69;5056380;28;20021;-60
2022/07/08 07:42:56;;;;;;;7.10;1.65;;;;;;;28.85;32.53;100974.56;5051123;28;20041;-60
2022/07/08 07:45:23;;;;;;;9.05;1.90;;;;;;;28.81;32.55;100978.53;5054307;28;20017;-59
2022/07/08 07:47:49;;;;;;;8.73;1.90;;;;;;;28.74;32.81;100973.66;5050814;28;20040;-60
2022/07/08 07:50:16;;;;;;;8.13;1.45;;;;;;;28.66;32.64;100971.16;5046441;28;20018;-60
2022/07/08 07:52:42;;;;;;;8.23;1.48;;;;;;;28.67;33.33;100973.56;5033107;28;20108;-62
2022/07/08 07:55:09;;;;;;;6.95;1.88;;;;;;;28.63;33.34;100971.94;5052382;28;20037;-59
2022/07/08 07:57:37;;;;;;;7.22;1.83;;;;;;;28.55;33.93;100971.84;5052282;28;20029;-60
2022/07/08 08:00:06;;;;;;;7.60;1.95;;;;;;;28.49;33.51;100978.94;5036047;28;20028;-61
2022/07/08 08:02:38;;;;;;;14.95;2.55;;;;;;;28.45;33.95;100972.50;5052521;28;20021;-60
2022/07/08 08:05:04;;;;;;;10.13;2.80;;;;;;;28.37;33.85;100976.41;5038739;28;20037;-59
2022/07/08 08:07:31;;;;;;;14.80;4.00;;;;;;;28.33;34.23;100971.94;5048328;28;20060;-59
2022/07/08 08:09:58;;;;;;;15.18;4.75;;;;;;;28.24;34.41;100969.41;5035573;28;20171;-61
2022/07/08 08:12:24;;;;;;;11.15;5.47;;;;;;;28.24;34.97;100972.22;5045521;28;20036;-60
2022/07/08 08:14:51;;;;;;;15.57;6.20;;;;;;;28.27;35.19;100974.28;5042718;28;20028;-61
2022/07/08 08:17:17;;;;;;;17.02;6.85;;;;;;;28.22;35.39;100977.38;5049718;28;20160;-62
2022/07/08 08:19:44;;;;;;;20.27;6.50;;;;;;;28.14;35.72;100973.66;5050987;28;20037;-61
2022/07/08 08:22:11;;;;;;;18.33;7.75;;;;;;;28.15;36.20;100971.66;5051568;28;20394;-60
2022/07/08 08:24:37;;;;;;;20.48;9.02;;;;;;;28.11;36.76;100968.03;5056941;28;20029;-60
2022/07/08 08:27:04;;;;;;;25.98;8.80;;;;;;;28.06;37.25;100973.94;5052694;28;20033;-60
2022/07/08 08:29:31;;;;;;;34.90;9.25;;;;;;;27.98;37.50;100976.63;5035734;28;20518;-60
2022/07/08 08:31:58;;;;;;;54.97;11.20;;;;;;;27.94;37.95;100972.19;5046651;28;20029;-59
2022/07/08 08:34:24;;;;;;;29.83;9.77;;;;;;;27.88;37.85;100963.31;5035611;28;20021;-60
2022/07/08 08:36:51;;;;;;;24.58;10.05;;;;;;;27.81;38.49;100966.00;5061113;28;20123;-60
2022/07/08 08:39:18;;;;;;;31.08;10.15;;;;;;;27.76;38.65;100962.72;5059778;28;20033;-60
2022/07/08 08:41:44;;;;;;;28.45;9.77;;;;;;;27.69;38.57;100963.44;5066368;28;20031;-60
2022/07/08 08:44:11;;;;;;;28.98;10.10;;;;;;;27.78;39.04;100966.75;5049833;28;20045;-60
2022/07/08 08:46:38;;;;;;;39.28;10.38;;;;;;;27.78;39.23;100966.75;5031980;28;20028;-60
2022/07/08 08:49:06;;;;;;;30.83;9.90;;;;;;;27.80;38.88;100967.19;5031953;28;20033;-60
2022/07/08 08:51:34;;;;;;;35.13;8.73;;;;;;;27.76;39.41;100969.13;5032346;28;20022;-58
2022/07/08 08:54:04;;;;;;;51.53;9.88;;;;;;;27.62;39.29;100958.50;5050818;28;20036;-60
2022/07/08 08:56:31;;;;;;;34.17;8.40;;;;;;;27.71;39.53;100958.28;5052072;28;20057;-60
2022/07/08 08:58:59;;;;;;;23.95;7.57;;;;;;;27.67;40.28;100966.59;5051845;28;20055;-60
2022/07/08 09:01:28;;;;;;;24.08;8.05;;;;;;;27.64;39.62;100969.31;5052175;28;20021;-59
2022/07/08 09:03:57;;;;;;;26.63;8.52;;;;;;;27.54;40.34;100973.53;5054831;28;20067;-59
2022/07/08 09:06:24;;;;;;;27.13;7.63;;;;;;;27.54;40.17;100967.94;5056015;28;20025;-59
2022/07/08 09:08:50;;;;;;;25.98;6.68;;;;;;;27.57;39.88;100978.38;5055639;28;20116;-60
2022/07/08 09:11:19;;;;;;;22.85;6.32;;;;;;;27.56;40.27;100984.31;5055673;28;20036;-59
2022/07/08 09:14:19;;;;;;;17.85;5.18;;;;;;;27.46;41.07;100976.56;5055726;28;20071;-60
2022/07/08 09:17:16;;;;;;;29.73;5.70;;;;;;;27.43;41.86;100977.31;5053784;28;20056;-59
2022/07/08 09:19:48;;;;;;;20.58;5.60;;;;;;;27.35;41.77;100982.78;5055636;28;20041;-58
2022/07/08 09:22:14;;;;;;;26.77;6.40;;;;;;;27.33;41.99;100985.16;5055109;28;20075;-61
2022/07/08 09:24:41;;;;;;;17.85;6.18;;;;;;;27.39;42.29;100980.06;5053094;28;20034;-60
2022/07/08 09:27:10;;;;;;;24.00;7.72;;;;;;;27.32;42.54;100983.53;5054921;28;20583;-60
2022/07/08 09:29:55;;;;;;;22.38;8.30;;;;;;;27.29;42.63;100984.28;5055397;28;20033;-60
2022/07/08 09:32:23;;;;;;;20.60;7.75;;;;;;;27.24;43.34;100986.56;5055412;28;20059;-61
2022/07/08 09:34:50;;;;;;;24.83;7.30;;;;;;;27.16;43.87;100987.63;5055193;28;20047;-60
2022/07/08 09:37:19;;;;;;;25.95;7.47;;;;;;;27.14;43.62;100988.00;5055127;28;20064;-61
2022/07/08 09:39:48;;;;;;;21.58;7.65;;;;;;;27.13;41.90;100989.19;5055227;28;20039;-62
2022/07/08 09:42:17;;;;;;;16.83;6.35;;;;;;;27.07;42.19;100985.88;5055265;28;20128;-62
2022/07/08 09:44:58;;;;;;;19.25;6.38;;;;;;;27.00;43.32;100982.16;5055152;28;20395;-60
2022/07/08 09:47:34;;;;;;;16.33;5.63;;;;;;;26.98;43.25;100984.47;5055121;28;20036;-60
2022/07/08 09:50:01;;;;;;;19.10;5.20;;;;;;;26.88;43.75;100979.47;5055085;28;20087;-60
2022/07/08 09:52:27;;;;;;;18.85;5.70;;;;;;;26.77;43.88;100982.09;5053485;28;20067;-60
2022/07/08 09:55:02;;;;;;;24.30;5.10;;;;;;;26.60;44.81;100979.75;5054613;28;20045;-59
2022/07/08 09:57:30;;;;;;;16.65;4.88;;;;;;;26.57;44.75;100975.72;5054981;28;20068;-60
2022/07/08 09:59:57;;;;;;;24.05;5.30;;;;;;;26.47;45.79;100988.25;5054900;28;20055;-59
2022/07/08 10:02:24;;;;;;;16.20;4.78;;;;;;;26.47;46.68;100993.00;5054733;28;20041;-60
2022/07/08 10:04:52;;;;;;;12.93;4.00;;;;;;;26.40;47.25;101001.22;5054645;28;20032;-61
2022/07/08 10:07:18;;;;;;;14.88;3.97;;;;;;;26.39;48.05;100994.03;5054355;28;20502;-60
2022/07/08 10:09:45;;;;;;;15.05;3.70;;;;;;;26.33;47.99;100999.06;5054613;28;20109;-60
2022/07/08 10:12:14;;;;;;;13.80;3.65;;;;;;;26.34;48.33;101005.44;5054811;28;20033;-60
2022/07/08 10:14:45;;;;;;;21.45;3.90;;;;;;;26.37;48.80;100999.16;5053832;28;20025;-60
2022/07/08 10:17:16;;;;;;;12.80;3.50;;;;;;;26.41;48.91;101012.00;5054376;28;20040;-60
2022/07/08 10:19:45;;;;;;;14.40;3.35;;;;;;;26.33;50.06;101012.97;5054670;28;20029;-59
2022/07/08 10:22:14;;;;;;;16.08;3.97;;;;;;;26.23;51.16;101013.56;5053986;28;20025;-59
2022/07/08 10:24:42;;;;;;;15.90;3.83;;;;;;;26.19;51.61;101016.25;5052840;28;20037;-60
2022/07/08 10:27:10;;;;;;;9.02;3.78;;;;;;;26.20;52.32;101015.06;5054023;28;20380;-60
2022/07/08 10:29:39;;;;;;;10.52;3.45;;;;;;;26.16;52.43;101024.53;5054514;28;20037;-59
2022/07/08 10:32:28;;;;;;;11.45;3.58;;;;;;;26.12;51.89;101027.25;5054244;28;20064;-61
2022/07/08 10:35:09;;;;;;;11.35;3.10;;;;;;;26.10;53.30;101026.00;5054228;28;20032;-59
2022/07/08 10:37:59;;;;;;;16.13;3.70;;;;;;;26.06;53.63;101025.91;5054106;28;20029;-61
2022/07/08 10:40:50;;;;;;;15.13;4.20;;;;;;;26.22;54.07;101030.66;5054061;28;20041;-60
2022/07/08 10:43:19;;;;;;;17.17;4.43;;;;;;;26.06;54.89;101030.69;5053879;28;20148;-61
2022/07/08 10:46:17;;;;;;;13.82;3.70;;;;;;;25.98;55.16;101034.47;5054026;28;20040;-60
2022/07/08 10:48:48;;;;;;;17.60;3.90;;;;;;;25.88;54.38;101030.25;5053754;28;20211;-59
2022/07/08 10:51:20;;;;;;;15.73;4.45;;;;;;;25.89;55.46;101029.09;5053726;28;20065;-61
2022/07/08 10:53:51;;;;;;;11.02;3.75;;;;;;;25.84;56.17;101040.47;5053187;28;20483;-60
2022/07/08 10:56:48;;;;;;;20.90;4.53;;;;;;;25.86;56.09;101033.41;5053784;28;20436;-61
2022/07/08 10:59:33;;;;;;;14.80;4.30;;;;;;;25.87;56.31;101037.00;5053417;28;20045;-60
2022/07/08 11:02:04;;;;;;;16.55;4.60;;;;;;;25.87;56.78;101042.56;5053705;28;20044;-60
2022/07/08 11:04:34;;;;;;;13.35;4.10;;;;;;;25.85;55.83;101042.09;5053715;28;20029;-60
2022/07/08 11:09:57;;;;;;;12.43;3.92;;;;;;;25.66;56.59;101047.56;5053457;28;20120;-62
2022/07/08 11:12:29;;;;;;;12.75;3.95;;;;;;;25.72;56.87;101051.72;5053466;28;20073;-61
2022/07/08 11:14:58;;;;;;;13.75;4.30;;;;;;;25.69;57.93;101049.69;5053468;28;20097;-60
2022/07/08 11:17:33;;;;;;;9.40;4.10;;;;;;;25.63;58.72;101051.88;5053358;28;20131;-60
2022/07/08 11:20:08;;;;;;;14.43;5.18;;;;;;;25.55;59.13;101050.88;5053516;28;20033;-60
2022/07/08 11:22:40;;;;;;;15.15;5.40;;;;;;;25.59;58.90;101060.13;5052733;28;20118;-60
2022/07/08 11:25:09;;;;;;;18.30;4.97;;;;;;;25.60;59.09;101056.19;5052950;28;20045;-61
2022/07/08 11:27:36;;;;;;;12.10;4.57;;;;;;;25.61;58.29;101052.22;5053112;28;20029;-60
2022/07/08 11:30:08;;;;;;;12.50;4.68;;;;;;;25.81;57.55;101066.28;5053273;28;20056;-61
2022/07/08 11:32:35;;;;;;;16.35;4.97;;;;;;;25.84;58.27;101071.13;5052927;28;20391;-59